sensor_id;sensor_type;location;lat;lon;timestamp;P1;durP1;ratioP1;P2;durP2;ratioP2
11334;SDS011;5722;42.620;23.374;2022-11-11T00:01:28;43.30;;;29.63;;
11334;SDS011;5722;42.620;23.374;2022-11-11T00:04:06;40.57;;;27.23;;
11334;SDS011;5722;42.620;23.374;2022-11-11T00:06:46;39.13;;;26.13;;
11334;SDS011;5722;42.620;23.374;2022-11-11T00:09:20;39.80;;;27.27;;
11334;SDS011;5722;42.620;23.374;2022-11-11T00:11:51;35.93;;;25.23;;
11334;SDS011;5722;42.620;23.374;2022-11-11T00:14:31;33.13;;;22.57;;
11334;SDS011;5722;42.620;23.374;2022-11-11T00:17:03;29.37;;;20.97;;
11334;SDS011;5722;42.620;23.374;2022-11-11T00:19:50;29.43;;;20.50;;
11334;SDS011;5722;42.620;23.374;2022-11-11T00:25:33;28.77;;;21.37;;
11334;SDS011;5722;42.620;23.374;2022-11-11T00:28:07;29.20;;;22.80;;
11334;SDS011;5722;42.620;23.374;2022-11-11T00:33:20;37.20;;;26.43;;
11334;SDS011;5722;42.620;23.374;2022-11-11T00:36:02;35.83;;;26.17;;
11334;SDS011;5722;42.620;23.374;2022-11-11T00:38:33;36.40;;;26.90;;
11334;SDS011;5722;42.620;23.374;2022-11-11T00:41:17;46.40;;;32.97;;
11334;SDS011;5722;42.620;23.374;2022-11-11T00:46:21;49.77;;;32.10;;
11334;SDS011;5722;42.620;23.374;2022-11-11T00:49:08;48.77;;;31.30;;
11334;SDS011;5722;42.620;23.374;2022-11-11T00:51:54;46.73;;;32.00;;
11334;SDS011;5722;42.620;23.374;2022-11-11T00:54:22;47.63;;;32.10;;
11334;SDS011;5722;42.620;23.374;2022-11-11T00:56:52;48.40;;;33.17;;
11334;SDS011;5722;42.620;23.374;2022-11-11T00:59:25;46.20;;;31.53;;
11334;SDS011;5722;42.620;23.374;2022-11-11T01:01:52;48.70;;;30.87;;
11334;SDS011;5722;42.620;23.374;2022-11-11T01:04:22;40.13;;;29.63;;
11334;SDS011;5722;42.620;23.374;2022-11-11T01:06:52;45.53;;;30.70;;
11334;SDS011;5722;42.620;23.374;2022-11-11T01:09:23;44.73;;;31.00;;
11334;SDS011;5722;42.620;23.374;2022-11-11T01:11:58;42.60;;;29.33;;
11334;SDS011;5722;42.620;23.374;2022-11-11T01:14:26;44.07;;;29.23;;
11334;SDS011;5722;42.620;23.374;2022-11-11T01:16:56;40.57;;;28.67;;
11334;SDS011;5722;42.620;23.374;2022-11-11T01:19:42;39.37;;;27.87;;
11334;SDS011;5722;42.620;23.374;2022-11-11T01:22:11;36.83;;;27.17;;
11334;SDS011;5722;42.620;23.374;2022-11-11T01:24:38;38.23;;;27.83;;
11334;SDS011;5722;42.620;23.374;2022-11-11T01:27:11;37.60;;;27.40;;
11334;SDS011;5722;42.620;23.374;2022-11-11T01:29:44;44.20;;;28.00;;
11334;SDS011;5722;42.620;23.374;2022-11-11T01:32:20;38.00;;;27.93;;
11334;SDS011;5722;42.620;23.374;2022-11-11T01:35:04;39.47;;;27.73;;
11334;SDS011;5722;42.620;23.374;2022-11-11T01:37:33;39.00;;;27.30;;
11334;SDS011;5722;42.620;23.374;2022-11-11T01:40:08;39.13;;;27.80;;
11334;SDS011;5722;42.620;23.374;2022-11-11T01:43:13;37.83;;;26.50;;
11334;SDS011;5722;42.620;23.374;2022-11-11T01:45:47;34.67;;;26.47;;
11334;SDS011;5722;42.620;23.374;2022-11-11T01:48:18;38.00;;;26.93;;
11334;SDS011;5722;42.620;23.374;2022-11-11T01:51:14;41.03;;;27.80;;
11334;SDS011;5722;42.620;23.374;2022-11-11T01:53:48;40.13;;;27.70;;
11334;SDS011;5722;42.620;23.374;2022-11-11T01:56:22;42.33;;;28.27;;
11334;SDS011;5722;42.620;23.374;2022-11-11T01:59:02;41.70;;;27.57;;
11334;SDS011;5722;42.620;23.374;2022-11-11T02:01:32;41.23;;;29.30;;
11334;SDS011;5722;42.620;23.374;2022-11-11T02:04:04;34.43;;;26.47;;
11334;SDS011;5722;42.620;23.374;2022-11-11T02:07:00;40.20;;;28.37;;
11334;SDS011;5722;42.620;23.374;2022-11-11T02:09:32;40.17;;;28.27;;
11334;SDS011;5722;42.620;23.374;2022-11-11T02:12:00;38.23;;;27.13;;
11334;SDS011;5722;42.620;23.374;2022-11-11T02:14:51;38.63;;;27.63;;
11334;SDS011;5722;42.620;23.374;2022-11-11T02:17:23;39.30;;;30.07;;
11334;SDS011;5722;42.620;23.374;2022-11-11T02:19:55;42.60;;;29.27;;
11334;SDS011;5722;42.620;23.374;2022-11-11T02:22:32;42.87;;;30.37;;
11334;SDS011;5722;42.620;23.374;2022-11-11T02:25:23;43.70;;;30.10;;
11334;SDS011;5722;42.620;23.374;2022-11-11T02:27:57;44.53;;;32.47;;
11334;SDS011;5722;42.620;23.374;2022-11-11T02:30:28;39.80;;;30.27;;
11334;SDS011;5722;42.620;23.374;2022-11-11T02:32:58;41.20;;;29.90;;
11334;SDS011;5722;42.620;23.374;2022-11-11T02:35:30;45.13;;;29.87;;
11334;SDS011;5722;42.620;23.374;2022-11-11T02:38:06;44.20;;;30.40;;
11334;SDS011;5722;42.620;23.374;2022-11-11T02:40:44;42.30;;;28.67;;
11334;SDS011;5722;42.620;23.374;2022-11-11T02:43:32;45.20;;;31.40;;
11334;SDS011;5722;42.620;23.374;2022-11-11T02:46:00;43.40;;;30.53;;
11334;SDS011;5722;42.620;23.374;2022-11-11T02:48:30;41.57;;;30.30;;
11334;SDS011;5722;42.620;23.374;2022-11-11T02:51:03;37.47;;;29.00;;
11334;SDS011;5722;42.620;23.374;2022-11-11T02:53:36;42.17;;;30.97;;
11334;SDS011;5722;42.620;23.374;2022-11-11T02:56:06;40.40;;;30.43;;
11334;SDS011;5722;42.620;23.374;2022-11-11T02:58:36;41.30;;;30.67;;
11334;SDS011;5722;42.620;23.374;2022-11-11T03:01:04;36.83;;;28.97;;
11334;SDS011;5722;42.620;23.374;2022-11-11T03:03:36;40.17;;;29.00;;
11334;SDS011;5722;42.620;23.374;2022-11-11T03:06:11;39.13;;;28.30;;
11334;SDS011;5722;42.620;23.374;2022-11-11T03:08:44;38.00;;;27.43;;
11334;SDS011;5722;42.620;23.374;2022-11-11T03:11:24;37.70;;;27.43;;
11334;SDS011;5722;42.620;23.374;2022-11-11T03:13:59;36.60;;;26.90;;
11334;SDS011;5722;42.620;23.374;2022-11-11T03:16:28;38.83;;;28.10;;
11334;SDS011;5722;42.620;23.374;2022-11-11T03:19:11;36.23;;;27.40;;
11334;SDS011;5722;42.620;23.374;2022-11-11T03:21:47;35.33;;;26.47;;
11334;SDS011;5722;42.620;23.374;2022-11-11T03:24:16;30.17;;;24.23;;
11334;SDS011;5722;42.620;23.374;2022-11-11T03:26:52;34.63;;;25.83;;
11334;SDS011;5722;42.620;23.374;2022-11-11T03:29:22;39.70;;;26.83;;
11334;SDS011;5722;42.620;23.374;2022-11-11T03:31:49;38.53;;;26.03;;
11334;SDS011;5722;42.620;23.374;2022-11-11T03:34:18;35.77;;;26.33;;
11334;SDS011;5722;42.620;23.374;2022-11-11T03:36:52;32.13;;;25.70;;
11334;SDS011;5722;42.620;23.374;2022-11-11T03:39:49;31.03;;;24.23;;
11334;SDS011;5722;42.620;23.374;2022-11-11T03:42:29;36.00;;;26.20;;
11334;SDS011;5722;42.620;23.374;2022-11-11T03:44:59;32.53;;;24.30;;
11334;SDS011;5722;42.620;23.374;2022-11-11T03:47:39;31.50;;;23.70;;
11334;SDS011;5722;42.620;23.374;2022-11-11T03:50:24;38.17;;;25.60;;
11334;SDS011;5722;42.620;23.374;2022-11-11T03:53:00;33.30;;;25.87;;
11334;SDS011;5722;42.620;23.374;2022-11-11T03:55:31;35.70;;;26.80;;
11334;SDS011;5722;42.620;23.374;2022-11-11T03:58:06;35.63;;;27.53;;
11334;SDS011;5722;42.620;23.374;2022-11-11T04:00:38;31.83;;;25.07;;
11334;SDS011;5722;42.620;23.374;2022-11-11T04:03:09;35.90;;;26.60;;
11334;SDS011;5722;42.620;23.374;2022-11-11T04:05:53;36.43;;;25.97;;
11334;SDS011;5722;42.620;23.374;2022-11-11T04:08:44;36.50;;;25.43;;
11334;SDS011;5722;42.620;23.374;2022-11-11T04:11:36;37.13;;;26.37;;
11334;SDS011;5722;42.620;23.374;2022-11-11T04:14:25;31.83;;;24.10;;
11334;SDS011;5722;42.620;23.374;2022-11-11T04:17:12;32.17;;;24.00;;
11334;SDS011;5722;42.620;23.374;2022-11-11T04:19:47;32.00;;;24.37;;
11334;SDS011;5722;42.620;23.374;2022-11-11T04:22:33;31.00;;;24.10;;
11334;SDS011;5722;42.620;23.374;2022-11-11T04:27:59;29.07;;;21.87;;
11334;SDS011;5722;42.620;23.374;2022-11-11T04:30:43;31.27;;;23.20;;
11334;SDS011;5722;42.620;23.374;2022-11-11T04:33:17;34.30;;;23.87;;
11334;SDS011;5722;42.620;23.374;2022-11-11T04:35:50;29.57;;;22.43;;
11334;SDS011;5722;42.620;23.374;2022-11-11T04:38:20;32.17;;;23.90;;
11334;SDS011;5722;42.620;23.374;2022-11-11T04:41:10;33.00;;;24.13;;
11334;SDS011;5722;42.620;23.374;2022-11-11T04:43:40;34.70;;;25.97;;
11334;SDS011;5722;42.620;23.374;2022-11-11T04:46:37;32.10;;;24.20;;
11334;SDS011;5722;42.620;23.374;2022-11-11T04:49:10;31.27;;;23.53;;
11334;SDS011;5722;42.620;23.374;2022-11-11T04:51:47;30.93;;;24.07;;
11334;SDS011;5722;42.620;23.374;2022-11-11T04:54:42;29.50;;;22.17;;
11334;SDS011;5722;42.620;23.374;2022-11-11T04:57:24;28.10;;;22.03;;
11334;SDS011;5722;42.620;23.374;2022-11-11T05:00:04;26.03;;;20.30;;
11334;SDS011;5722;42.620;23.374;2022-11-11T05:02:36;25.73;;;20.53;;
11334;SDS011;5722;42.620;23.374;2022-11-11T05:05:20;27.63;;;22.03;;
11334;SDS011;5722;42.620;23.374;2022-11-11T05:08:05;27.03;;;21.63;;
11334;SDS011;5722;42.620;23.374;2022-11-11T05:11:02;28.43;;;21.83;;
11334;SDS011;5722;42.620;23.374;2022-11-11T05:13:40;26.37;;;21.10;;
11334;SDS011;5722;42.620;23.374;2022-11-11T05:16:26;26.93;;;20.97;;
11334;SDS011;5722;42.620;23.374;2022-11-11T05:19:33;24.40;;;19.70;;
11334;SDS011;5722;42.620;23.374;2022-11-11T05:22:27;23.77;;;19.83;;
11334;SDS011;5722;42.620;23.374;2022-11-11T05:25:04;25.67;;;19.70;;
11334;SDS011;5722;42.620;23.374;2022-11-11T05:28:11;26.77;;;21.37;;
11334;SDS011;5722;42.620;23.374;2022-11-11T05:30:43;30.23;;;22.63;;
11334;SDS011;5722;42.620;23.374;2022-11-11T05:33:30;27.73;;;22.07;;
11334;SDS011;5722;42.620;23.374;2022-11-11T05:36:13;30.90;;;23.47;;
11334;SDS011;5722;42.620;23.374;2022-11-11T05:38:49;27.60;;;21.20;;
11334;SDS011;5722;42.620;23.374;2022-11-11T05:41:17;27.73;;;22.50;;
11334;SDS011;5722;42.620;23.374;2022-11-11T05:43:50;30.53;;;21.40;;
11334;SDS011;5722;42.620;23.374;2022-11-11T05:46:18;30.07;;;21.60;;
11334;SDS011;5722;42.620;23.374;2022-11-11T05:48:46;29.23;;;21.67;;
11334;SDS011;5722;42.620;23.374;2022-11-11T05:51:34;29.90;;;21.13;;
11334;SDS011;5722;42.620;23.374;2022-11-11T05:54:04;27.13;;;20.80;;
11334;SDS011;5722;42.620;23.374;2022-11-11T05:56:37;25.27;;;20.70;;
11334;SDS011;5722;42.620;23.374;2022-11-11T05:59:32;27.47;;;20.57;;
11334;SDS011;5722;42.620;23.374;2022-11-11T06:02:01;30.33;;;21.33;;
11334;SDS011;5722;42.620;23.374;2022-11-11T06:04:28;26.17;;;20.77;;
11334;SDS011;5722;42.620;23.374;2022-11-11T06:07:06;27.43;;;20.87;;
11334;SDS011;5722;42.620;23.374;2022-11-11T06:09:33;27.00;;;21.23;;
11334;SDS011;5722;42.620;23.374;2022-11-11T06:12:06;28.33;;;21.80;;
11334;SDS011;5722;42.620;23.374;2022-11-11T06:14:34;31.07;;;21.30;;
11334;SDS011;5722;42.620;23.374;2022-11-11T06:17:02;29.40;;;21.97;;
11334;SDS011;5722;42.620;23.374;2022-11-11T06:19:35;29.93;;;22.57;;
11334;SDS011;5722;42.620;23.374;2022-11-11T06:22:21;29.67;;;22.10;;
11334;SDS011;5722;42.620;23.374;2022-11-11T06:25:11;37.67;;;26.90;;
11334;SDS011;5722;42.620;23.374;2022-11-11T06:27:56;36.57;;;24.30;;
11334;SDS011;5722;42.620;23.374;2022-11-11T06:30:32;34.87;;;23.90;;
11334;SDS011;5722;42.620;23.374;2022-11-11T06:33:07;34.00;;;24.57;;
11334;SDS011;5722;42.620;23.374;2022-11-11T06:35:38;32.97;;;25.27;;
11334;SDS011;5722;42.620;23.374;2022-11-11T06:40:57;34.43;;;25.43;;
11334;SDS011;5722;42.620;23.374;2022-11-11T06:43:31;36.40;;;25.27;;
11334;SDS011;5722;42.620;23.374;2022-11-11T06:46:00;34.70;;;25.37;;
11334;SDS011;5722;42.620;23.374;2022-11-11T06:48:29;30.80;;;24.63;;
11334;SDS011;5722;42.620;23.374;2022-11-11T06:51:03;34.67;;;24.97;;
11334;SDS011;5722;42.620;23.374;2022-11-11T06:53:37;36.10;;;24.60;;
11334;SDS011;5722;42.620;23.374;2022-11-11T06:56:08;33.83;;;25.33;;
11334;SDS011;5722;42.620;23.374;2022-11-11T06:58:47;37.13;;;24.60;;
11334;SDS011;5722;42.620;23.374;2022-11-11T07:01:26;32.93;;;23.67;;
11334;SDS011;5722;42.620;23.374;2022-11-11T07:03:55;33.47;;;23.67;;
11334;SDS011;5722;42.620;23.374;2022-11-11T07:06:25;30.57;;;23.80;;
11334;SDS011;5722;42.620;23.374;2022-11-11T07:09:05;35.80;;;25.53;;
11334;SDS011;5722;42.620;23.374;2022-11-11T07:11:39;32.50;;;24.30;;
11334;SDS011;5722;42.620;23.374;2022-11-11T07:14:09;31.30;;;23.43;;
11334;SDS011;5722;42.620;23.374;2022-11-11T07:16:49;30.40;;;24.40;;
11334;SDS011;5722;42.620;23.374;2022-11-11T07:19:22;33.70;;;24.47;;
11334;SDS011;5722;42.620;23.374;2022-11-11T07:21:53;32.07;;;24.33;;
11334;SDS011;5722;42.620;23.374;2022-11-11T07:24:24;28.47;;;22.83;;
11334;SDS011;5722;42.620;23.374;2022-11-11T07:27:00;31.40;;;23.30;;
11334;SDS011;5722;42.620;23.374;2022-11-11T07:29:28;29.53;;;21.87;;
11334;SDS011;5722;42.620;23.374;2022-11-11T07:32:02;27.93;;;21.23;;
11334;SDS011;5722;42.620;23.374;2022-11-11T07:34:39;29.30;;;22.53;;
11334;SDS011;5722;42.620;23.374;2022-11-11T07:37:09;29.60;;;21.97;;
11334;SDS011;5722;42.620;23.374;2022-11-11T07:39:37;28.63;;;21.63;;
11334;SDS011;5722;42.620;23.374;2022-11-11T07:44:53;28.67;;;19.23;;
11334;SDS011;5722;42.620;23.374;2022-11-11T07:47:21;26.37;;;18.90;;
11334;SDS011;5722;42.620;23.374;2022-11-11T07:49:53;27.47;;;18.93;;
11334;SDS011;5722;42.620;23.374;2022-11-11T07:52:24;28.80;;;18.20;;
11334;SDS011;5722;42.620;23.374;2022-11-11T07:54:53;24.23;;;18.10;;
11334;SDS011;5722;42.620;23.374;2022-11-11T07:57:21;25.80;;;17.83;;
11334;SDS011;5722;42.620;23.374;2022-11-11T07:59:53;21.83;;;16.67;;
11334;SDS011;5722;42.620;23.374;2022-11-11T08:02:23;22.60;;;17.03;;
11334;SDS011;5722;42.620;23.374;2022-11-11T08:05:04;24.40;;;16.63;;
11334;SDS011;5722;42.620;23.374;2022-11-11T08:07:40;23.37;;;16.63;;
11334;SDS011;5722;42.620;23.374;2022-11-11T08:10:12;24.83;;;17.87;;
11334;SDS011;5722;42.620;23.374;2022-11-11T08:12:50;32.33;;;18.17;;
11334;SDS011;5722;42.620;23.374;2022-11-11T08:15:58;25.50;;;16.70;;
11334;SDS011;5722;42.620;23.374;2022-11-11T08:18:31;21.37;;;16.93;;
11334;SDS011;5722;42.620;23.374;2022-11-11T08:21:01;20.83;;;16.00;;
11334;SDS011;5722;42.620;23.374;2022-11-11T08:23:30;20.47;;;16.00;;
11334;SDS011;5722;42.620;23.374;2022-11-11T08:26:04;24.47;;;17.10;;
11334;SDS011;5722;42.620;23.374;2022-11-11T08:31:26;22.73;;;17.03;;
11334;SDS011;5722;42.620;23.374;2022-11-11T08:33:55;24.63;;;17.20;;
11334;SDS011;5722;42.620;23.374;2022-11-11T08:36:29;26.93;;;18.30;;
11334;SDS011;5722;42.620;23.374;2022-11-11T08:38:58;27.37;;;18.30;;
11334;SDS011;5722;42.620;23.374;2022-11-11T08:41:25;24.40;;;18.20;;
11334;SDS011;5722;42.620;23.374;2022-11-11T08:43:58;25.30;;;17.63;;
11334;SDS011;5722;42.620;23.374;2022-11-11T08:46:29;28.67;;;18.50;;
11334;SDS011;5722;42.620;23.374;2022-11-11T08:48:58;21.17;;;16.50;;
11334;SDS011;5722;42.620;23.374;2022-11-11T08:51:36;25.63;;;18.40;;
11334;SDS011;5722;42.620;23.374;2022-11-11T08:54:03;22.73;;;16.97;;
11334;SDS011;5722;42.620;23.374;2022-11-11T08:56:36;22.37;;;16.70;;
11334;SDS011;5722;42.620;23.374;2022-11-11T08:59:07;18.27;;;14.77;;
11334;SDS011;5722;42.620;23.374;2022-11-11T09:01:46;19.27;;;14.73;;
11334;SDS011;5722;42.620;23.374;2022-11-11T09:04:18;18.57;;;13.33;;
11334;SDS011;5722;42.620;23.374;2022-11-11T09:06:48;17.60;;;13.50;;
11334;SDS011;5722;42.620;23.374;2022-11-11T09:09:19;20.07;;;13.73;;
11334;SDS011;5722;42.620;23.374;2022-11-11T09:11:47;21.63;;;14.63;;
11334;SDS011;5722;42.620;23.374;2022-11-11T09:14:17;20.73;;;14.30;;
11334;SDS011;5722;42.620;23.374;2022-11-11T09:16:46;22.37;;;14.27;;
11334;SDS011;5722;42.620;23.374;2022-11-11T09:19:15;17.27;;;13.37;;
11334;SDS011;5722;42.620;23.374;2022-11-11T09:21:48;18.47;;;14.10;;
11334;SDS011;5722;42.620;23.374;2022-11-11T09:24:17;15.10;;;12.33;;
11334;SDS011;5722;42.620;23.374;2022-11-11T09:26:48;15.10;;;12.10;;
11334;SDS011;5722;42.620;23.374;2022-11-11T09:29:19;17.73;;;13.00;;
11334;SDS011;5722;42.620;23.374;2022-11-11T09:31:47;16.10;;;12.57;;
11334;SDS011;5722;42.620;23.374;2022-11-11T09:34:14;14.83;;;11.40;;
11334;SDS011;5722;42.620;23.374;2022-11-11T09:36:42;17.53;;;11.87;;
11334;SDS011;5722;42.620;23.374;2022-11-11T09:39:12;19.27;;;12.93;;
11334;SDS011;5722;42.620;23.374;2022-11-11T09:41:42;16.57;;;12.80;;
11334;SDS011;5722;42.620;23.374;2022-11-11T09:44:17;16.60;;;12.90;;
11334;SDS011;5722;42.620;23.374;2022-11-11T09:46:52;16.63;;;12.60;;
11334;SDS011;5722;42.620;23.374;2022-11-11T09:49:27;18.13;;;13.47;;
11334;SDS011;5722;42.620;23.374;2022-11-11T09:51:57;20.63;;;14.50;;
11334;SDS011;5722;42.620;23.374;2022-11-11T09:54:29;18.03;;;11.33;;
11334;SDS011;5722;42.620;23.374;2022-11-11T09:56:57;15.97;;;12.67;;
11334;SDS011;5722;42.620;23.374;2022-11-11T09:59:32;13.73;;;10.17;;
11334;SDS011;5722;42.620;23.374;2022-11-11T10:02:08;12.57;;;10.60;;
11334;SDS011;5722;42.620;23.374;2022-11-11T10:04:41;14.10;;;10.80;;
11334;SDS011;5722;42.620;23.374;2022-11-11T10:07:30;20.70;;;11.97;;
11334;SDS011;5722;42.620;23.374;2022-11-11T10:10:03;13.63;;;10.43;;
11334;SDS011;5722;42.620;23.374;2022-11-11T10:12:35;18.63;;;12.57;;
11334;SDS011;5722;42.620;23.374;2022-11-11T10:15:06;14.53;;;10.87;;
11334;SDS011;5722;42.620;23.374;2022-11-11T10:17:41;19.67;;;12.70;;
11334;SDS011;5722;42.620;23.374;2022-11-11T10:20:13;16.40;;;12.07;;
11334;SDS011;5722;42.620;23.374;2022-11-11T10:22:48;12.47;;;10.30;;
11334;SDS011;5722;42.620;23.374;2022-11-11T10:25:18;13.27;;;10.23;;
11334;SDS011;5722;42.620;23.374;2022-11-11T10:27:50;20.93;;;13.53;;
11334;SDS011;5722;42.620;23.374;2022-11-11T10:30:20;11.53;;;9.90;;
11334;SDS011;5722;42.620;23.374;2022-11-11T10:32:51;14.97;;;9.17;;
11334;SDS011;5722;42.620;23.374;2022-11-11T10:35:22;13.63;;;9.50;;
11334;SDS011;5722;42.620;23.374;2022-11-11T10:38:01;12.40;;;9.00;;
11334;SDS011;5722;42.620;23.374;2022-11-11T10:40:33;11.73;;;8.70;;
11334;SDS011;5722;42.620;23.374;2022-11-11T10:45:47;9.17;;;8.07;;
11334;SDS011;5722;42.620;23.374;2022-11-11T10:48:20;9.17;;;8.00;;
11334;SDS011;5722;42.620;23.374;2022-11-11T10:51:04;9.83;;;8.33;;
11334;SDS011;5722;42.620;23.374;2022-11-11T10:53:33;8.67;;;7.67;;
11334;SDS011;5722;42.620;23.374;2022-11-11T10:56:10;8.90;;;8.00;;
11334;SDS011;5722;42.620;23.374;2022-11-11T10:58:42;9.23;;;8.27;;
11334;SDS011;5722;42.620;23.374;2022-11-11T11:01:13;9.90;;;8.07;;
11334;SDS011;5722;42.620;23.374;2022-11-11T11:03:54;12.97;;;8.70;;
11334;SDS011;5722;42.620;23.374;2022-11-11T11:06:23;8.70;;;7.90;;
11334;SDS011;5722;42.620;23.374;2022-11-11T11:08:57;8.50;;;7.60;;
11334;SDS011;5722;42.620;23.374;2022-11-11T11:11:32;10.53;;;7.87;;
11334;SDS011;5722;42.620;23.374;2022-11-11T11:14:02;11.77;;;9.50;;
11334;SDS011;5722;42.620;23.374;2022-11-11T11:16:37;10.80;;;7.77;;
11334;SDS011;5722;42.620;23.374;2022-11-11T11:19:16;9.20;;;7.70;;
11334;SDS011;5722;42.620;23.374;2022-11-11T11:21:49;11.67;;;7.23;;
11334;SDS011;5722;42.620;23.374;2022-11-11T11:24:20;7.73;;;6.90;;
11334;SDS011;5722;42.620;23.374;2022-11-11T11:26:48;9.40;;;7.50;;
11334;SDS011;5722;42.620;23.374;2022-11-11T11:29:29;8.67;;;7.03;;
11334;SDS011;5722;42.620;23.374;2022-11-11T11:32:09;9.43;;;7.17;;
11334;SDS011;5722;42.620;23.374;2022-11-11T11:34:47;7.77;;;6.57;;
11334;SDS011;5722;42.620;23.374;2022-11-11T11:37:16;9.30;;;6.80;;
11334;SDS011;5722;42.620;23.374;2022-11-11T11:39:44;8.17;;;6.90;;
11334;SDS011;5722;42.620;23.374;2022-11-11T11:45:14;7.10;;;6.40;;
11334;SDS011;5722;42.620;23.374;2022-11-11T11:47:50;7.50;;;6.20;;
11334;SDS011;5722;42.620;23.374;2022-11-11T11:50:38;10.43;;;7.80;;
11334;SDS011;5722;42.620;23.374;2022-11-11T11:53:18;6.70;;;5.97;;
11334;SDS011;5722;42.620;23.374;2022-11-11T11:55:59;6.30;;;5.70;;
11334;SDS011;5722;42.620;23.374;2022-11-11T11:58:33;6.90;;;6.07;;
11334;SDS011;5722;42.620;23.374;2022-11-11T12:01:14;7.30;;;5.97;;
11334;SDS011;5722;42.620;23.374;2022-11-11T12:03:54;7.67;;;6.20;;
11334;SDS011;5722;42.620;23.374;2022-11-11T12:09:16;7.37;;;6.57;;
11334;SDS011;5722;42.620;23.374;2022-11-11T12:11:49;8.47;;;6.00;;
11334;SDS011;5722;42.620;23.374;2022-11-11T12:14:34;7.03;;;6.00;;
11334;SDS011;5722;42.620;23.374;2022-11-11T12:17:06;8.10;;;6.10;;
11334;SDS011;5722;42.620;23.374;2022-11-11T12:19:39;7.13;;;6.37;;
11334;SDS011;5722;42.620;23.374;2022-11-11T12:22:15;6.47;;;5.60;;
11334;SDS011;5722;42.620;23.374;2022-11-11T12:24:49;7.23;;;5.60;;
11334;SDS011;5722;42.620;23.374;2022-11-11T12:27:20;8.33;;;6.17;;
11334;SDS011;5722;42.620;23.374;2022-11-11T12:29:55;8.00;;;5.73;;
11334;SDS011;5722;42.620;23.374;2022-11-11T12:32:31;14.23;;;5.40;;
11334;SDS011;5722;42.620;23.374;2022-11-11T12:35:19;6.63;;;5.13;;
11334;SDS011;5722;42.620;23.374;2022-11-11T12:37:51;6.03;;;5.40;;
11334;SDS011;5722;42.620;23.374;2022-11-11T12:40:25;7.47;;;5.93;;
11334;SDS011;5722;42.620;23.374;2022-11-11T12:43:05;6.73;;;5.90;;
11334;SDS011;5722;42.620;23.374;2022-11-11T12:45:48;8.20;;;6.03;;
11334;SDS011;5722;42.620;23.374;2022-11-11T12:48:27;10.20;;;6.20;;
11334;SDS011;5722;42.620;23.374;2022-11-11T12:51:12;8.97;;;5.67;;
11334;SDS011;5722;42.620;23.374;2022-11-11T12:53:45;7.53;;;5.83;;
11334;SDS011;5722;42.620;23.374;2022-11-11T12:56:24;8.47;;;5.70;;
11334;SDS011;5722;42.620;23.374;2022-11-11T12:58:58;6.93;;;5.77;;
11334;SDS011;5722;42.620;23.374;2022-11-11T13:01:29;8.30;;;6.13;;
11334;SDS011;5722;42.620;23.374;2022-11-11T13:04:04;8.30;;;5.83;;
11334;SDS011;5722;42.620;23.374;2022-11-11T13:06:44;6.37;;;5.70;;
11334;SDS011;5722;42.620;23.374;2022-11-11T13:09:21;6.80;;;6.10;;
11334;SDS011;5722;42.620;23.374;2022-11-11T13:12:00;7.50;;;5.50;;
11334;SDS011;5722;42.620;23.374;2022-11-11T13:14:39;7.83;;;6.13;;
11334;SDS011;5722;42.620;23.374;2022-11-11T13:17:08;7.03;;;5.80;;
11334;SDS011;5722;42.620;23.374;2022-11-11T13:19:39;9.07;;;6.27;;
11334;SDS011;5722;42.620;23.374;2022-11-11T13:22:12;9.07;;;6.67;;
11334;SDS011;5722;42.620;23.374;2022-11-11T13:24:41;10.47;;;6.67;;
11334;SDS011;5722;42.620;23.374;2022-11-11T13:27:13;8.50;;;5.80;;
11334;SDS011;5722;42.620;23.374;2022-11-11T13:32:38;6.53;;;5.40;;
11334;SDS011;5722;42.620;23.374;2022-11-11T13:35:15;9.20;;;5.63;;
11334;SDS011;5722;42.620;23.374;2022-11-11T13:37:46;7.13;;;5.80;;
11334;SDS011;5722;42.620;23.374;2022-11-11T13:40:23;8.93;;;5.40;;
11334;SDS011;5722;42.620;23.374;2022-11-11T13:42:54;8.17;;;6.27;;
11334;SDS011;5722;42.620;23.374;2022-11-11T13:45:23;7.03;;;6.20;;
11334;SDS011;5722;42.620;23.374;2022-11-11T13:47:56;17.17;;;6.37;;
11334;SDS011;5722;42.620;23.374;2022-11-11T13:50:24;12.30;;;6.20;;
11334;SDS011;5722;42.620;23.374;2022-11-11T13:52:54;9.17;;;7.27;;
11334;SDS011;5722;42.620;23.374;2022-11-11T13:55:24;11.10;;;6.30;;
11334;SDS011;5722;42.620;23.374;2022-11-11T13:57:59;12.80;;;6.60;;
11334;SDS011;5722;42.620;23.374;2022-11-11T14:00:31;11.67;;;6.57;;
11334;SDS011;5722;42.620;23.374;2022-11-11T14:08:52;12.30;;;8.20;;
11334;SDS011;5722;42.620;23.374;2022-11-11T14:11:28;11.83;;;7.03;;
11334;SDS011;5722;42.620;23.374;2022-11-11T14:13:58;10.50;;;7.33;;
11334;SDS011;5722;42.620;23.374;2022-11-11T14:16:58;13.27;;;7.83;;
11334;SDS011;5722;42.620;23.374;2022-11-11T14:19:36;11.77;;;7.53;;
11334;SDS011;5722;42.620;23.374;2022-11-11T14:22:23;11.03;;;7.47;;
11334;SDS011;5722;42.620;23.374;2022-11-11T14:24:54;10.30;;;7.63;;
11334;SDS011;5722;42.620;23.374;2022-11-11T14:27:24;14.00;;;7.47;;
11334;SDS011;5722;42.620;23.374;2022-11-11T14:29:54;15.13;;;7.93;;
11334;SDS011;5722;42.620;23.374;2022-11-11T14:32:33;9.43;;;7.60;;
11334;SDS011;5722;42.620;23.374;2022-11-11T14:35:10;13.57;;;7.47;;
11334;SDS011;5722;42.620;23.374;2022-11-11T14:37:49;8.17;;;7.03;;
11334;SDS011;5722;42.620;23.374;2022-11-11T14:40:25;10.77;;;7.50;;
11334;SDS011;5722;42.620;23.374;2022-11-11T14:42:56;11.37;;;7.77;;
11334;SDS011;5722;42.620;23.374;2022-11-11T14:53:59;14.07;;;8.57;;
11334;SDS011;5722;42.620;23.374;2022-11-11T14:56:27;10.00;;;7.93;;
11334;SDS011;5722;42.620;23.374;2022-11-11T14:58:59;12.10;;;8.20;;
11334;SDS011;5722;42.620;23.374;2022-11-11T15:01:32;12.47;;;8.27;;
11334;SDS011;5722;42.620;23.374;2022-11-11T15:04:02;10.43;;;7.50;;
11334;SDS011;5722;42.620;23.374;2022-11-11T15:06:46;9.50;;;7.20;;
11334;SDS011;5722;42.620;23.374;2022-11-11T15:09:27;9.43;;;7.43;;
11334;SDS011;5722;42.620;23.374;2022-11-11T15:12:04;11.70;;;7.93;;
11334;SDS011;5722;42.620;23.374;2022-11-11T15:14:42;10.77;;;7.93;;
11334;SDS011;5722;42.620;23.374;2022-11-11T15:17:20;11.67;;;8.07;;
11334;SDS011;5722;42.620;23.374;2022-11-11T15:19:59;10.63;;;8.30;;
11334;SDS011;5722;42.620;23.374;2022-11-11T15:22:40;10.90;;;8.47;;
11334;SDS011;5722;42.620;23.374;2022-11-11T15:25:20;11.07;;;8.90;;
11334;SDS011;5722;42.620;23.374;2022-11-11T15:27:58;10.97;;;9.00;;
11334;SDS011;5722;42.620;23.374;2022-11-11T15:30:46;13.70;;;8.93;;
11334;SDS011;5722;42.620;23.374;2022-11-11T15:33:20;11.47;;;9.27;;
11334;SDS011;5722;42.620;23.374;2022-11-11T15:35:54;12.47;;;10.07;;
11334;SDS011;5722;42.620;23.374;2022-11-11T15:38:29;15.73;;;10.23;;
11334;SDS011;5722;42.620;23.374;2022-11-11T15:41:22;14.10;;;9.70;;
11334;SDS011;5722;42.620;23.374;2022-11-11T15:43:50;14.50;;;10.03;;
11334;SDS011;5722;42.620;23.374;2022-11-11T15:46:21;14.57;;;11.20;;
11334;SDS011;5722;42.620;23.374;2022-11-11T15:48:50;14.73;;;12.17;;
11334;SDS011;5722;42.620;23.374;2022-11-11T15:51:32;15.47;;;11.53;;
11334;SDS011;5722;42.620;23.374;2022-11-11T15:54:09;18.90;;;12.17;;
11334;SDS011;5722;42.620;23.374;2022-11-11T15:56:43;15.80;;;12.13;;
11334;SDS011;5722;42.620;23.374;2022-11-11T15:59:17;20.10;;;12.47;;
11334;SDS011;5722;42.620;23.374;2022-11-11T16:01:50;24.67;;;14.60;;